createdAt,value
2018-07-13T00:01:40.301Z,75.70
2018-07-13T00:05:43.663Z,75.80
2018-07-13T00:09:47.028Z,75.20
2018-07-13T00:14:21.858Z,76.40
2018-07-13T00:18:25.219Z,76.20
2018-07-13T00:22:28.587Z,75.10
2018-07-13T00:26:31.956Z,75.80
2018-07-13T00:30:35.318Z,75.70
2018-07-13T00:34:38.790Z,75.30
2018-07-13T00:38:42.293Z,75.40
2018-07-13T00:42:45.645Z,75.50
2018-07-13T00:46:49.007Z,75.70
2018-07-13T00:50:52.371Z,76.00
2018-07-13T00:54:55.695Z,76.60
2018-07-13T00:58:59.067Z,75.40
2018-07-13T01:03:03.936Z,76.40
2018-07-13T01:07:07.388Z,75.90
2018-07-13T01:11:10.763Z,75.50
2018-07-13T01:15:14.143Z,76.00
2018-07-13T01:19:18.247Z,76.20
2018-07-13T01:23:21.613Z,75.30
2018-07-13T01:27:28.471Z,76.00
2018-07-13T01:31:31.819Z,75.40
2018-07-13T01:35:35.176Z,75.20
2018-07-13T01:39:38.550Z,78.60
2018-07-13T01:43:41.915Z,76.10
2018-07-13T01:47:45.462Z,76.60
2018-07-13T01:51:48.899Z,75.50
2018-07-13T01:55:52.243Z,75.80
2018-07-13T01:59:55.622Z,76.00
2018-07-13T02:03:59.019Z,76.20
2018-07-13T02:08:02.408Z,77.10
2018-07-13T02:12:05.902Z,76.70
2018-07-13T02:16:09.280Z,78.40
2018-07-13T02:20:12.723Z,76.90
2018-07-13T02:24:16.112Z,76.50
2018-07-13T02:28:19.487Z,75.80
2018-07-13T02:32:22.840Z,78.10
2018-07-13T02:36:26.196Z,79.00
2018-07-13T02:40:29.549Z,77.30
2018-07-13T02:44:32.991Z,76.80
2018-07-13T02:48:36.343Z,76.90
2018-07-13T02:52:39.728Z,76.30
2018-07-13T02:56:43.100Z,76.40
2018-07-13T03:04:49.651Z,76.20
2018-07-13T03:08:53.002Z,76.50
2018-07-13T03:12:57.180Z,76.50
2018-07-13T03:17:07.076Z,76.00
2018-07-13T03:21:10.455Z,76.30
2018-07-13T03:25:13.908Z,76.80
2018-07-13T03:29:17.267Z,77.60
2018-07-13T03:33:20.623Z,76.20
2018-07-13T03:37:24.119Z,76.60
2018-07-13T03:41:27.591Z,78.60
2018-07-13T03:45:31.038Z,76.20
2018-07-13T03:49:34.391Z,76.10
2018-07-13T03:53:42.920Z,76.90
2018-07-13T03:57:46.339Z,76.10
2018-07-13T04:01:49.727Z,76.70
2018-07-13T04:05:53.100Z,76.50
2018-07-13T04:09:56.463Z,76.60
2018-07-13T04:13:59.839Z,76.60
2018-07-13T04:18:03.237Z,76.00
2018-07-13T04:22:06.620Z,76.20
2018-07-13T04:26:10.079Z,76.40
2018-07-13T04:30:13.512Z,79.60
2018-07-13T04:34:16.902Z,76.50
2018-07-13T04:38:20.247Z,76.70
2018-07-13T04:42:23.559Z,76.50
2018-07-13T04:46:27.008Z,76.70
2018-07-13T04:50:30.372Z,76.60
2018-07-13T04:54:33.750Z,76.80
2018-07-13T04:58:37.447Z,76.70
2018-07-13T05:02:40.796Z,76.40
2018-07-13T05:06:44.156Z,76.80
2018-07-13T05:10:47.538Z,77.80
2018-07-13T05:14:51.283Z,77.20
2018-07-13T05:18:54.750Z,76.40
2018-07-13T05:22:58.186Z,76.60
2018-07-13T05:27:01.571Z,76.70
2018-07-13T05:31:05.079Z,76.60
2018-07-13T05:35:08.471Z,77.10
2018-07-13T05:39:12.529Z,77.40
2018-07-13T05:43:15.902Z,76.70
2018-07-13T05:47:19.259Z,76.70
2018-07-13T05:51:22.663Z,77.30
2018-07-13T05:55:26.051Z,77.70
2018-07-13T05:59:29.426Z,77.10
2018-07-13T06:03:32.843Z,77.60
2018-07-13T06:07:36.372Z,77.50
2018-07-13T06:11:40.617Z,77.70
2018-07-13T06:15:44.028Z,78.80
2018-07-13T06:19:47.411Z,77.00
2018-07-13T06:23:50.759Z,77.10
2018-07-13T06:27:54.087Z,77.20
2018-07-13T06:31:57.447Z,77.90
2018-07-13T06:36:00.823Z,77.10
2018-07-13T06:40:04.307Z,77.90
2018-07-13T06:44:07.721Z,77.70
2018-07-13T06:48:11.275Z,76.90
2018-07-13T06:52:14.750Z,76.60
2018-07-13T06:56:18.104Z,77.10
2018-07-13T07:01:04.170Z,76.90
2018-07-13T07:06:17.418Z,78.20
2018-07-13T07:10:20.891Z,76.70
2018-07-13T07:14:24.256Z,77.90
2018-07-13T07:18:27.677Z,76.60
2018-07-13T07:22:31.039Z,77.00
2018-07-13T07:26:34.414Z,76.90
2018-07-13T07:30:37.911Z,77.60
2018-07-13T07:34:41.243Z,77.30
2018-07-13T07:38:44.619Z,77.00
2018-07-13T07:42:48.006Z,76.90
2018-07-13T07:46:51.355Z,77.50
2018-07-13T07:50:54.726Z,78.90
2018-07-13T07:54:58.055Z,77.50
2018-07-13T07:59:01.407Z,77.80
2018-07-13T08:03:05.257Z,77.90
2018-07-13T08:11:11.822Z,77.50
2018-07-13T08:15:15.187Z,77.90
2018-07-13T08:19:21.492Z,77.10
2018-07-13T08:23:24.863Z,77.50
2018-07-13T08:27:44.041Z,77.70
2018-07-13T08:31:47.472Z,78.20
2018-07-13T08:35:50.827Z,78.70
2018-07-13T08:39:54.250Z,77.30
2018-07-13T08:43:57.670Z,77.30
2018-07-13T08:48:01.045Z,78.10
2018-07-13T08:52:04.459Z,77.70
2018-07-13T08:56:07.887Z,77.20
2018-07-13T09:00:11.366Z,77.80
2018-07-13T09:04:14.731Z,77.10
2018-07-13T09:08:18.328Z,77.10
2018-07-13T09:12:21.738Z,78.40
2018-07-13T09:16:25.158Z,77.00
2018-07-13T09:20:28.519Z,76.30
2018-07-13T09:24:31.867Z,80.80
2018-07-13T09:28:35.256Z,76.90
2018-07-13T09:32:38.655Z,77.00
2018-07-13T09:36:42.080Z,77.10
2018-07-13T09:40:45.452Z,77.30
2018-07-13T09:44:48.823Z,79.30
2018-07-13T09:48:52.195Z,77.90
2018-07-13T09:52:55.593Z,77.40
2018-07-13T09:56:58.947Z,78.10
2018-07-13T10:01:07.624Z,76.90
2018-07-13T10:05:11.002Z,76.50
2018-07-13T10:09:14.383Z,76.80
2018-07-13T10:13:17.741Z,77.80
2018-07-13T10:17:21.116Z,76.60
2018-07-13T10:21:24.578Z,76.50
2018-07-13T10:25:28.791Z,76.90
2018-07-13T10:29:35.475Z,77.60
2018-07-13T10:37:42.886Z,77.10
2018-07-13T10:41:46.204Z,77.00
2018-07-13T10:45:49.604Z,76.90
2018-07-13T10:49:52.991Z,77.10
2018-07-13T10:53:56.335Z,76.60
2018-07-13T10:58:00.207Z,77.00
2018-07-13T11:02:03.566Z,76.70
2018-07-13T11:06:06.919Z,77.40
2018-07-13T11:10:10.511Z,76.20
2018-07-13T11:14:13.867Z,77.10
2018-07-13T11:22:20.255Z,76.20
2018-07-13T11:26:23.700Z,76.30
2018-07-13T11:30:27.124Z,76.40
2018-07-13T11:34:30.826Z,76.40
2018-07-13T11:38:34.449Z,76.20
2018-07-13T11:42:38.152Z,76.30
2018-07-13T11:46:41.524Z,76.30
2018-07-13T11:50:44.894Z,76.30
2018-07-13T11:54:48.234Z,75.20
2018-07-13T11:58:51.566Z,76.10
2018-07-13T12:02:54.944Z,76.20
2018-07-13T12:06:58.257Z,75.80
2018-07-13T12:11:01.596Z,76.00
2018-07-13T12:15:04.999Z,76.20
2018-07-13T12:19:08.737Z,76.30
2018-07-13T12:23:12.350Z,75.00
2018-07-13T12:27:15.621Z,76.30
2018-07-13T12:31:19.022Z,75.00
2018-07-13T12:35:22.367Z,76.00
2018-07-13T12:39:25.806Z,76.00
2018-07-13T12:43:29.088Z,74.80
2018-07-13T12:47:32.411Z,74.80
2018-07-13T12:51:35.796Z,75.40
2018-07-13T12:55:39.122Z,75.60
2018-07-13T12:59:42.584Z,75.30
2018-07-13T13:03:46.001Z,73.40
2018-07-13T13:07:49.842Z,75.90
2018-07-13T13:11:53.232Z,75.90
2018-07-13T13:15:56.627Z,70.60
2018-07-13T13:19:59.983Z,75.70
2018-07-13T13:24:03.367Z,72.10
2018-07-13T13:28:06.710Z,74.00
2018-07-13T13:32:10.064Z,74.80
2018-07-13T13:36:13.431Z,74.10
2018-07-13T13:40:16.790Z,73.80
2018-07-13T13:44:20.146Z,74.80
2018-07-13T13:48:23.564Z,74.30
2018-07-13T13:52:26.887Z,71.90
2018-07-13T13:56:30.245Z,71.00
2018-07-13T14:00:33.590Z,73.90
2018-07-13T14:04:36.935Z,74.10
2018-07-13T14:08:40.434Z,73.60
2018-07-13T14:12:43.773Z,72.60
2018-07-13T14:16:47.126Z,73.30
2018-07-13T14:20:50.482Z,73.30
2018-07-13T14:24:53.840Z,73.80
2018-07-13T14:28:57.179Z,73.50
2018-07-13T14:33:00.526Z,73.40
2018-07-13T14:37:03.935Z,74.80
2018-07-13T14:41:07.275Z,74.50
2018-07-13T14:45:10.611Z,71.50
2018-07-13T14:49:13.957Z,70.40
2018-07-13T14:53:17.344Z,73.40
2018-07-13T14:57:21.080Z,66.20
2018-07-13T15:01:24.539Z,72.10
2018-07-13T15:05:27.914Z,71.90
2018-07-13T15:09:31.242Z,72.40
2018-07-13T15:13:34.643Z,69.00
2018-07-13T15:17:38.124Z,65.30
2018-07-13T15:21:41.454Z,68.10
2018-07-13T15:25:44.833Z,70.10
2018-07-13T15:29:48.202Z,71.80
2018-07-13T15:33:51.559Z,69.20
2018-07-13T15:37:54.962Z,69.30
2018-07-13T15:41:58.294Z,69.70
2018-07-13T15:46:01.657Z,71.00
2018-07-13T15:50:05.021Z,68.30
2018-07-13T15:54:08.395Z,70.70
2018-07-13T15:58:11.734Z,66.50
2018-07-13T16:02:15.071Z,69.60
2018-07-13T16:06:18.727Z,65.50
2018-07-13T16:10:22.038Z,67.60
2018-07-13T16:14:25.398Z,69.30
2018-07-13T16:18:28.728Z,68.50
2018-07-13T16:22:32.051Z,67.60
2018-07-13T16:26:35.404Z,71.00
2018-07-13T16:30:38.723Z,61.30
2018-07-13T16:34:42.059Z,63.00
2018-07-13T16:38:45.461Z,69.60
2018-07-13T16:42:48.907Z,71.80
2018-07-13T16:46:52.235Z,65.90
2018-07-13T16:50:55.669Z,60.20
2018-07-13T16:54:58.951Z,69.40
2018-07-13T16:59:02.280Z,61.40
2018-07-13T17:03:05.655Z,68.00
2018-07-13T17:07:09.093Z,65.40
2018-07-13T17:11:12.617Z,68.10
2018-07-13T17:15:16.154Z,67.30
2018-07-13T17:19:19.553Z,66.00
2018-07-13T17:23:22.883Z,68.00
2018-07-13T17:27:26.228Z,66.60
2018-07-13T17:31:29.707Z,68.10
2018-07-13T17:35:33.031Z,68.50
2018-07-13T17:39:36.422Z,64.30
2018-07-13T17:43:39.755Z,67.90
2018-07-13T17:47:43.148Z,67.20
2018-07-13T17:51:46.483Z,66.50
2018-07-13T17:55:49.805Z,66.00
2018-07-13T17:59:53.155Z,67.00
2018-07-13T18:03:56.937Z,66.40
2018-07-13T18:08:00.336Z,67.40
2018-07-13T18:12:03.730Z,66.20
2018-07-13T18:16:07.069Z,67.90
2018-07-13T18:20:10.467Z,68.00
2018-07-13T18:24:13.810Z,67.70
2018-07-13T18:28:17.232Z,68.00
2018-07-13T18:32:20.526Z,66.30
2018-07-13T18:36:23.863Z,67.50
2018-07-13T18:40:27.283Z,67.60
2018-07-13T18:44:30.667Z,67.90
2018-07-13T18:48:34.004Z,68.00
2018-07-13T18:52:37.351Z,68.40
2018-07-13T18:56:40.699Z,67.60
2018-07-13T19:00:44.037Z,68.70
2018-07-13T19:04:47.396Z,68.40
2018-07-13T19:08:50.727Z,68.70
2018-07-13T19:12:54.093Z,68.90
2018-07-13T19:16:57.541Z,69.10
2018-07-13T19:21:00.876Z,69.10
2018-07-13T19:25:04.298Z,69.20
2018-07-13T19:29:08.186Z,69.50
2018-07-13T19:33:11.583Z,69.20
2018-07-13T19:37:15.474Z,69.10
2018-07-13T19:41:19.399Z,69.50
2018-07-13T19:45:22.835Z,69.70
2018-07-13T19:49:26.867Z,69.90
2018-07-13T19:53:30.291Z,70.10
2018-07-13T19:57:33.595Z,70.00
2018-07-13T20:01:36.997Z,70.00
2018-07-13T20:05:40.320Z,70.00
2018-07-13T20:09:43.709Z,70.10
2018-07-13T20:13:47.105Z,70.20
2018-07-13T20:17:50.455Z,70.40
2018-07-13T20:21:53.799Z,70.30
2018-07-13T20:25:57.142Z,70.30
2018-07-13T20:30:00.479Z,70.30
2018-07-13T20:34:03.831Z,70.80
2018-07-13T20:38:07.219Z,71.10
2018-07-13T20:42:10.579Z,71.30
2018-07-13T20:46:13.923Z,70.80
2018-07-13T20:50:17.259Z,70.90
2018-07-13T20:54:20.695Z,71.50
2018-07-13T20:58:24.025Z,71.50
2018-07-13T21:02:27.555Z,71.30
2018-07-13T21:06:30.927Z,71.70
2018-07-13T21:10:34.317Z,72.10
2018-07-13T21:14:37.716Z,71.60
2018-07-13T21:18:41.066Z,71.60
2018-07-13T21:22:44.443Z,71.40
2018-07-13T21:26:47.888Z,72.40
2018-07-13T21:30:51.256Z,72.00
2018-07-13T21:34:54.952Z,72.20
2018-07-13T21:38:58.299Z,71.40
2018-07-13T21:43:01.664Z,72.70
2018-07-13T21:47:05.156Z,71.40
2018-07-13T21:51:08.571Z,72.50
2018-07-13T21:55:12.053Z,72.20
2018-07-13T21:59:16.182Z,72.50
2018-07-13T22:03:20.806Z,72.30
2018-07-13T22:07:26.007Z,72.10
2018-07-13T22:11:30.840Z,72.20
2018-07-13T22:15:35.752Z,72.70
2018-07-13T22:19:41.812Z,72.20
2018-07-13T22:23:46.470Z,72.40
2018-07-13T22:27:49.852Z,72.50
2018-07-13T22:31:53.258Z,72.40
2018-07-13T22:35:56.622Z,72.90
2018-07-13T22:39:59.971Z,72.20
2018-07-13T22:44:03.415Z,72.00
2018-07-13T22:48:06.792Z,73.20
2018-07-13T22:52:10.147Z,72.60
2018-07-13T22:56:13.483Z,73.60
2018-07-13T23:00:16.863Z,72.40
2018-07-13T23:04:20.211Z,72.50
2018-07-13T23:08:23.547Z,72.50
2018-07-13T23:12:27.095Z,72.80
2018-07-13T23:16:30.493Z,72.30
2018-07-13T23:20:33.851Z,72.60
2018-07-13T23:24:37.267Z,72.80
2018-07-13T23:28:40.631Z,72.60
2018-07-13T23:32:43.975Z,73.40
2018-07-13T23:36:47.452Z,74.40
2018-07-13T23:40:50.819Z,74.10
2018-07-13T23:44:54.258Z,74.40
2018-07-13T23:48:57.635Z,73.40
2018-07-13T23:53:01.108Z,72.90
